sensor_id;sensor_type;location;lat;lon;timestamp;temperature;humidity
6210;DHT22;3138;52.550;13.148;2023-08-20T00:01:12;22.90;99.90
6210;DHT22;3138;52.550;13.148;2023-08-20T00:03:40;22.90;99.90
6210;DHT22;3138;52.550;13.148;2023-08-20T00:06:09;22.80;99.90
6210;DHT22;3138;52.550;13.148;2023-08-20T00:08:36;22.80;99.90
6210;DHT22;3138;52.550;13.148;2023-08-20T00:11:04;22.90;99.90
6210;DHT22;3138;52.550;13.148;2023-08-20T00:13:32;22.80;99.90
6210;DHT22;3138;52.550;13.148;2023-08-20T00:15:59;22.90;99.90
6210;DHT22;3138;52.550;13.148;2023-08-20T00:18:26;22.90;99.90
6210;DHT22;3138;52.550;13.148;2023-08-20T00:20:54;23.00;99.90
6210;DHT22;3138;52.550;13.148;2023-08-20T00:23:21;23.20;99.90
6210;DHT22;3138;52.550;13.148;2023-08-20T00:25:49;23.30;99.90
6210;DHT22;3138;52.550;13.148;2023-08-20T00:28:18;23.40;99.90
6210;DHT22;3138;52.550;13.148;2023-08-20T00:30:45;23.40;99.90
6210;DHT22;3138;52.550;13.148;2023-08-20T00:33:12;23.40;99.90
6210;DHT22;3138;52.550;13.148;2023-08-20T00:35:39;23.40;99.90
6210;DHT22;3138;52.550;13.148;2023-08-20T00:38:06;23.50;99.90
6210;DHT22;3138;52.550;13.148;2023-08-20T00:40:33;23.40;99.90
6210;DHT22;3138;52.550;13.148;2023-08-20T00:43:00;23.50;99.90
6210;DHT22;3138;52.550;13.148;2023-08-20T00:45:28;23.40;99.90
6210;DHT22;3138;52.550;13.148;2023-08-20T00:47:56;23.30;99.90
6210;DHT22;3138;52.550;13.148;2023-08-20T00:50:24;23.30;99.90
6210;DHT22;3138;52.550;13.148;2023-08-20T00:52:50;23.30;99.90
6210;DHT22;3138;52.550;13.148;2023-08-20T00:55:18;23.30;99.90
6210;DHT22;3138;52.550;13.148;2023-08-20T00:57:44;23.20;99.90
6210;DHT22;3138;52.550;13.148;2023-08-20T01:00:12;23.30;99.90
6210;DHT22;3138;52.550;13.148;2023-08-20T01:02:40;23.30;99.90
6210;DHT22;3138;52.550;13.148;2023-08-20T01:05:10;23.30;99.90
6210;DHT22;3138;52.550;13.148;2023-08-20T01:07:48;23.30;99.90
6210;DHT22;3138;52.550;13.148;2023-08-20T01:10:27;23.20;99.90
6210;DHT22;3138;52.550;13.148;2023-08-20T01:12:56;23.20;99.90
6210;DHT22;3138;52.550;13.148;2023-08-20T01:15:23;23.20;99.90
6210;DHT22;3138;52.550;13.148;2023-08-20T01:17:52;23.20;99.90
6210;DHT22;3138;52.550;13.148;2023-08-20T01:20:19;23.10;99.90
6210;DHT22;3138;52.550;13.148;2023-08-20T01:23:20;23.10;99.90
6210;DHT22;3138;52.550;13.148;2023-08-20T01:26:04;23.00;99.90
6210;DHT22;3138;52.550;13.148;2023-08-20T01:28:36;23.00;99.90
6210;DHT22;3138;52.550;13.148;2023-08-20T01:31:05;23.00;99.90
6210;DHT22;3138;52.550;13.148;2023-08-20T01:33:32;22.90;99.90
6210;DHT22;3138;52.550;13.148;2023-08-20T01:35:59;22.90;99.90
6210;DHT22;3138;52.550;13.148;2023-08-20T01:38:26;22.90;99.90
6210;DHT22;3138;52.550;13.148;2023-08-20T01:40:53;22.90;99.90
6210;DHT22;3138;52.550;13.148;2023-08-20T01:43:21;22.80;99.90
6210;DHT22;3138;52.550;13.148;2023-08-20T01:45:49;22.80;99.90
6210;DHT22;3138;52.550;13.148;2023-08-20T01:48:16;22.70;99.90
6210;DHT22;3138;52.550;13.148;2023-08-20T01:50:43;22.70;99.90
6210;DHT22;3138;52.550;13.148;2023-08-20T01:53:11;22.60;99.90
6210;DHT22;3138;52.550;13.148;2023-08-20T01:55:38;22.60;99.90
6210;DHT22;3138;52.550;13.148;2023-08-20T01:58:05;22.60;99.90
6210;DHT22;3138;52.550;13.148;2023-08-20T02:00:31;22.60;99.90
6210;DHT22;3138;52.550;13.148;2023-08-20T02:03:00;22.60;99.90
6210;DHT22;3138;52.550;13.148;2023-08-20T02:05:27;22.60;99.90
6210;DHT22;3138;52.550;13.148;2023-08-20T02:07:54;22.50;99.90
6210;DHT22;3138;52.550;13.148;2023-08-20T02:10:21;22.50;99.90
6210;DHT22;3138;52.550;13.148;2023-08-20T02:12:48;22.50;99.90
6210;DHT22;3138;52.550;13.148;2023-08-20T02:15:15;22.50;99.90
6210;DHT22;3138;52.550;13.148;2023-08-20T02:17:41;22.40;99.90
6210;DHT22;3138;52.550;13.148;2023-08-20T02:20:10;22.40;99.90
6210;DHT22;3138;52.550;13.148;2023-08-20T02:22:37;22.30;99.90
6210;DHT22;3138;52.550;13.148;2023-08-20T02:25:04;22.30;99.90
6210;DHT22;3138;52.550;13.148;2023-08-20T02:27:31;22.20;99.90
6210;DHT22;3138;52.550;13.148;2023-08-20T02:29:58;22.30;99.90
6210;DHT22;3138;52.550;13.148;2023-08-20T02:32:25;22.20;99.90
6210;DHT22;3138;52.550;13.148;2023-08-20T02:34:52;22.20;99.90
6210;DHT22;3138;52.550;13.148;2023-08-20T02:37:21;22.10;99.90
6210;DHT22;3138;52.550;13.148;2023-08-20T02:39:48;22.10;99.90
6210;DHT22;3138;52.550;13.148;2023-08-20T02:42:14;22.10;99.90
6210;DHT22;3138;52.550;13.148;2023-08-20T02:44:41;22.00;99.90
6210;DHT22;3138;52.550;13.148;2023-08-20T02:47:08;21.90;99.90
6210;DHT22;3138;52.550;13.148;2023-08-20T02:49:35;21.90;99.90
6210;DHT22;3138;52.550;13.148;2023-08-20T02:52:02;21.90;99.90
6210;DHT22;3138;52.550;13.148;2023-08-20T02:54:30;21.90;99.90
6210;DHT22;3138;52.550;13.148;2023-08-20T02:56:59;22.00;99.90
6210;DHT22;3138;52.550;13.148;2023-08-20T02:59:26;21.90;99.90
6210;DHT22;3138;52.550;13.148;2023-08-20T03:01:53;21.90;99.90
6210;DHT22;3138;52.550;13.148;2023-08-20T03:04:20;21.90;99.90
6210;DHT22;3138;52.550;13.148;2023-08-20T03:06:46;21.80;99.90
6210;DHT22;3138;52.550;13.148;2023-08-20T03:09:13;21.80;99.90
6210;DHT22;3138;52.550;13.148;2023-08-20T03:11:42;21.80;99.90
6210;DHT22;3138;52.550;13.148;2023-08-20T03:14:08;21.80;99.90
6210;DHT22;3138;52.550;13.148;2023-08-20T03:16:35;21.70;99.90
6210;DHT22;3138;52.550;13.148;2023-08-20T03:19:02;21.70;99.90
6210;DHT22;3138;52.550;13.148;2023-08-20T03:21:29;21.70;99.90
6210;DHT22;3138;52.550;13.148;2023-08-20T03:23:56;21.70;99.90
6210;DHT22;3138;52.550;13.148;2023-08-20T03:26:23;21.60;99.90
6210;DHT22;3138;52.550;13.148;2023-08-20T03:28:51;21.60;99.90
6210;DHT22;3138;52.550;13.148;2023-08-20T03:31:18;21.50;99.90
6210;DHT22;3138;52.550;13.148;2023-08-20T03:33:45;21.50;99.90
6210;DHT22;3138;52.550;13.148;2023-08-20T03:36:12;21.50;99.90
6210;DHT22;3138;52.550;13.148;2023-08-20T03:38:38;21.50;99.90
6210;DHT22;3138;52.550;13.148;2023-08-20T03:41:05;21.40;99.90
6210;DHT22;3138;52.550;13.148;2023-08-20T03:43:32;21.40;99.90
6210;DHT22;3138;52.550;13.148;2023-08-20T03:46:01;21.40;99.90
6210;DHT22;3138;52.550;13.148;2023-08-20T03:48:28;21.40;99.90
6210;DHT22;3138;52.550;13.148;2023-08-20T03:50:55;21.40;99.90
6210;DHT22;3138;52.550;13.148;2023-08-20T03:53:22;21.40;99.90
6210;DHT22;3138;52.550;13.148;2023-08-20T03:55:49;21.30;99.90
6210;DHT22;3138;52.550;13.148;2023-08-20T03:58:16;21.40;99.90
6210;DHT22;3138;52.550;13.148;2023-08-20T04:00:43;21.30;99.90
6210;DHT22;3138;52.550;13.148;2023-08-20T04:03:12;21.40;99.90
6210;DHT22;3138;52.550;13.148;2023-08-20T04:05:39;21.40;99.90
6210;DHT22;3138;52.550;13.148;2023-08-20T04:08:06;21.30;99.90
6210;DHT22;3138;52.550;13.148;2023-08-20T04:10:33;21.30;99.90
6210;DHT22;3138;52.550;13.148;2023-08-20T04:13:00;21.30;99.90
6210;DHT22;3138;52.550;13.148;2023-08-20T04:15:27;21.30;99.90
6210;DHT22;3138;52.550;13.148;2023-08-20T04:17:54;21.30;99.90
6210;DHT22;3138;52.550;13.148;2023-08-20T04:20:22;21.20;99.90
6210;DHT22;3138;52.550;13.148;2023-08-20T04:22:49;21.20;99.90
6210;DHT22;3138;52.550;13.148;2023-08-20T04:25:16;21.20;99.90
6210;DHT22;3138;52.550;13.148;2023-08-20T04:27:43;21.20;99.90
6210;DHT22;3138;52.550;13.148;2023-08-20T04:30:11;21.30;99.90
6210;DHT22;3138;52.550;13.148;2023-08-20T04:32:38;21.30;99.90
6210;DHT22;3138;52.550;13.148;2023-08-20T04:35:05;21.30;99.90
6210;DHT22;3138;52.550;13.148;2023-08-20T04:37:34;21.40;99.90
6210;DHT22;3138;52.550;13.148;2023-08-20T04:40:00;21.40;99.90
6210;DHT22;3138;52.550;13.148;2023-08-20T04:42:30;21.40;99.90
6210;DHT22;3138;52.550;13.148;2023-08-20T04:44:57;21.40;99.90
6210;DHT22;3138;52.550;13.148;2023-08-20T04:47:23;21.40;99.90
6210;DHT22;3138;52.550;13.148;2023-08-20T04:49:50;21.40;99.90
6210;DHT22;3138;52.550;13.148;2023-08-20T04:52:17;21.40;99.90
6210;DHT22;3138;52.550;13.148;2023-08-20T04:54:46;21.40;99.90
6210;DHT22;3138;52.550;13.148;2023-08-20T04:57:13;21.40;99.90
6210;DHT22;3138;52.550;13.148;2023-08-20T04:59:39;21.40;99.90
6210;DHT22;3138;52.550;13.148;2023-08-20T05:02:08;21.50;99.90
6210;DHT22;3138;52.550;13.148;2023-08-20T05:07:03;21.70;99.90
6210;DHT22;3138;52.550;13.148;2023-08-20T05:09:30;21.80;99.90
6210;DHT22;3138;52.550;13.148;2023-08-20T05:11:58;21.80;99.90
6210;DHT22;3138;52.550;13.148;2023-08-20T05:14:25;21.80;99.90
6210;DHT22;3138;52.550;13.148;2023-08-20T05:16:52;21.80;99.90
6210;DHT22;3138;52.550;13.148;2023-08-20T05:19:18;21.90;99.90
6210;DHT22;3138;52.550;13.148;2023-08-20T05:21:45;21.90;99.90
6210;DHT22;3138;52.550;13.148;2023-08-20T05:24:12;21.90;99.90
6210;DHT22;3138;52.550;13.148;2023-08-20T05:26:39;21.90;99.90
6210;DHT22;3138;52.550;13.148;2023-08-20T05:29:07;21.90;99.90
6210;DHT22;3138;52.550;13.148;2023-08-20T05:31:34;21.80;99.90
6210;DHT22;3138;52.550;13.148;2023-08-20T05:34:01;21.70;99.90
6210;DHT22;3138;52.550;13.148;2023-08-20T05:36:27;21.70;99.90
6210;DHT22;3138;52.550;13.148;2023-08-20T05:38:54;21.70;99.90
6210;DHT22;3138;52.550;13.148;2023-08-20T05:41:21;21.70;99.90
6210;DHT22;3138;52.550;13.148;2023-08-20T05:43:48;21.70;99.90
6210;DHT22;3138;52.550;13.148;2023-08-20T05:46:16;21.60;99.90
6210;DHT22;3138;52.550;13.148;2023-08-20T05:48:43;21.60;99.90
6210;DHT22;3138;52.550;13.148;2023-08-20T05:51:10;21.60;99.90
6210;DHT22;3138;52.550;13.148;2023-08-20T05:53:37;21.70;99.90
6210;DHT22;3138;52.550;13.148;2023-08-20T05:56:04;21.60;99.90
6210;DHT22;3138;52.550;13.148;2023-08-20T05:58:30;21.50;99.90
6210;DHT22;3138;52.550;13.148;2023-08-20T06:00:57;21.40;99.90
6210;DHT22;3138;52.550;13.148;2023-08-20T06:03:26;21.50;99.90
6210;DHT22;3138;52.550;13.148;2023-08-20T06:05:52;21.60;99.90
6210;DHT22;3138;52.550;13.148;2023-08-20T06:08:19;21.70;99.90
6210;DHT22;3138;52.550;13.148;2023-08-20T06:10:46;21.60;99.90
6210;DHT22;3138;52.550;13.148;2023-08-20T06:13:13;21.50;99.90
6210;DHT22;3138;52.550;13.148;2023-08-20T06:15:40;21.50;99.90
6210;DHT22;3138;52.550;13.148;2023-08-20T06:18:07;21.50;99.90
6210;DHT22;3138;52.550;13.148;2023-08-20T06:20:35;21.50;99.90
6210;DHT22;3138;52.550;13.148;2023-08-20T06:23:02;21.60;99.90
6210;DHT22;3138;52.550;13.148;2023-08-20T06:25:29;21.70;99.90
6210;DHT22;3138;52.550;13.148;2023-08-20T06:27:55;21.70;99.90
6210;DHT22;3138;52.550;13.148;2023-08-20T06:30:22;21.80;99.90
6210;DHT22;3138;52.550;13.148;2023-08-20T06:32:49;22.00;99.90
6210;DHT22;3138;52.550;13.148;2023-08-20T06:35:16;22.30;99.90
6210;DHT22;3138;52.550;13.148;2023-08-20T06:37:44;22.30;99.90
6210;DHT22;3138;52.550;13.148;2023-08-20T06:40:11;22.40;99.90
6210;DHT22;3138;52.550;13.148;2023-08-20T06:42:39;22.10;99.90
6210;DHT22;3138;52.550;13.148;2023-08-20T06:45:07;22.30;99.90
6210;DHT22;3138;52.550;13.148;2023-08-20T06:47:34;22.30;99.90
6210;DHT22;3138;52.550;13.148;2023-08-20T06:50:02;22.40;99.90
6210;DHT22;3138;52.550;13.148;2023-08-20T06:52:29;22.20;99.90
6210;DHT22;3138;52.550;13.148;2023-08-20T06:54:57;22.10;99.90
6210;DHT22;3138;52.550;13.148;2023-08-20T06:57:23;22.10;99.90
6210;DHT22;3138;52.550;13.148;2023-08-20T06:59:50;22.40;99.90
6210;DHT22;3138;52.550;13.148;2023-08-20T07:02:17;22.70;99.90
6210;DHT22;3138;52.550;13.148;2023-08-20T07:04:44;22.90;99.90
6210;DHT22;3138;52.550;13.148;2023-08-20T07:07:12;22.60;99.90
6210;DHT22;3138;52.550;13.148;2023-08-20T07:09:40;22.50;99.90
6210;DHT22;3138;52.550;13.148;2023-08-20T07:12:08;22.20;99.90
6210;DHT22;3138;52.550;13.148;2023-08-20T07:14:35;22.10;99.90
6210;DHT22;3138;52.550;13.148;2023-08-20T07:17:02;22.00;99.90
6210;DHT22;3138;52.550;13.148;2023-08-20T07:19:30;22.10;99.90
6210;DHT22;3138;52.550;13.148;2023-08-20T07:21:57;22.10;99.90
6210;DHT22;3138;52.550;13.148;2023-08-20T07:24:24;22.50;99.90
6210;DHT22;3138;52.550;13.148;2023-08-20T07:26:51;22.90;99.90
6210;DHT22;3138;52.550;13.148;2023-08-20T07:29:26;22.80;99.90
6210;DHT22;3138;52.550;13.148;2023-08-20T07:31:55;22.50;99.90
6210;DHT22;3138;52.550;13.148;2023-08-20T07:34:22;22.50;99.90
6210;DHT22;3138;52.550;13.148;2023-08-20T07:36:49;22.80;99.90
6210;DHT22;3138;52.550;13.148;2023-08-20T07:39:16;23.00;99.90
6210;DHT22;3138;52.550;13.148;2023-08-20T07:41:42;23.30;99.90
6210;DHT22;3138;52.550;13.148;2023-08-20T07:44:09;23.50;99.90
6210;DHT22;3138;52.550;13.148;2023-08-20T07:46:37;23.60;99.90
6210;DHT22;3138;52.550;13.148;2023-08-20T07:49:04;23.80;99.90
6210;DHT22;3138;52.550;13.148;2023-08-20T07:51:31;23.90;99.90
6210;DHT22;3138;52.550;13.148;2023-08-20T07:53:58;23.90;99.90
6210;DHT22;3138;52.550;13.148;2023-08-20T07:56:26;24.10;99.90
6210;DHT22;3138;52.550;13.148;2023-08-20T07:58:53;24.20;99.90
6210;DHT22;3138;52.550;13.148;2023-08-20T08:01:19;24.20;99.90
6210;DHT22;3138;52.550;13.148;2023-08-20T08:03:49;24.10;99.90
6210;DHT22;3138;52.550;13.148;2023-08-20T08:06:16;24.30;99.90
6210;DHT22;3138;52.550;13.148;2023-08-20T08:08:43;24.50;99.90
6210;DHT22;3138;52.550;13.148;2023-08-20T08:11:10;24.70;99.90
6210;DHT22;3138;52.550;13.148;2023-08-20T08:13:37;24.90;99.90
6210;DHT22;3138;52.550;13.148;2023-08-20T08:16:04;25.10;99.90
6210;DHT22;3138;52.550;13.148;2023-08-20T08:18:31;25.50;99.90
6210;DHT22;3138;52.550;13.148;2023-08-20T08:20:59;25.50;99.90
6210;DHT22;3138;52.550;13.148;2023-08-20T08:23:26;25.40;99.90
6210;DHT22;3138;52.550;13.148;2023-08-20T08:25:53;25.70;99.90
6210;DHT22;3138;52.550;13.148;2023-08-20T08:28:20;25.10;99.90
6210;DHT22;3138;52.550;13.148;2023-08-20T08:30:47;25.00;99.90
6210;DHT22;3138;52.550;13.148;2023-08-20T08:33:14;24.80;99.90
6210;DHT22;3138;52.550;13.148;2023-08-20T08:35:41;24.40;99.90
6210;DHT22;3138;52.550;13.148;2023-08-20T08:38:09;24.40;99.90
6210;DHT22;3138;52.550;13.148;2023-08-20T08:40:36;24.40;99.90
6210;DHT22;3138;52.550;13.148;2023-08-20T08:43:03;24.20;99.90
6210;DHT22;3138;52.550;13.148;2023-08-20T08:45:31;24.20;99.90
6210;DHT22;3138;52.550;13.148;2023-08-20T08:47:59;24.30;99.90
6210;DHT22;3138;52.550;13.148;2023-08-20T08:50:27;24.50;99.90
6210;DHT22;3138;52.550;13.148;2023-08-20T08:52:54;24.90;99.90
6210;DHT22;3138;52.550;13.148;2023-08-20T08:55:22;25.40;99.90
6210;DHT22;3138;52.550;13.148;2023-08-20T08:57:49;25.40;99.90
6210;DHT22;3138;52.550;13.148;2023-08-20T09:00:16;25.20;99.90
6210;DHT22;3138;52.550;13.148;2023-08-20T09:02:43;25.30;99.90
6210;DHT22;3138;52.550;13.148;2023-08-20T09:05:10;25.30;99.90
6210;DHT22;3138;52.550;13.148;2023-08-20T09:07:42;25.00;99.90
6210;DHT22;3138;52.550;13.148;2023-08-20T09:10:10;25.20;99.90
6210;DHT22;3138;52.550;13.148;2023-08-20T09:12:38;25.20;99.90
6210;DHT22;3138;52.550;13.148;2023-08-20T09:15:10;25.50;99.90
6210;DHT22;3138;52.550;13.148;2023-08-20T09:17:37;26.00;99.90
6210;DHT22;3138;52.550;13.148;2023-08-20T09:20:05;26.20;99.90
6210;DHT22;3138;52.550;13.148;2023-08-20T09:22:32;26.30;99.90
6210;DHT22;3138;52.550;13.148;2023-08-20T09:25:01;26.20;99.90
6210;DHT22;3138;52.550;13.148;2023-08-20T09:27:28;26.40;99.90
6210;DHT22;3138;52.550;13.148;2023-08-20T09:29:57;26.20;99.90
6210;DHT22;3138;52.550;13.148;2023-08-20T09:32:25;26.30;99.90
6210;DHT22;3138;52.550;13.148;2023-08-20T09:34:53;26.20;99.90
6210;DHT22;3138;52.550;13.148;2023-08-20T09:37:21;26.20;99.90
6210;DHT22;3138;52.550;13.148;2023-08-20T09:39:49;26.50;99.90
6210;DHT22;3138;52.550;13.148;2023-08-20T09:42:16;26.40;99.90
6210;DHT22;3138;52.550;13.148;2023-08-20T09:44:44;26.50;99.90
6210;DHT22;3138;52.550;13.148;2023-08-20T09:47:14;26.70;99.90
6210;DHT22;3138;52.550;13.148;2023-08-20T09:49:42;26.80;99.90
6210;DHT22;3138;52.550;13.148;2023-08-20T09:52:10;26.70;99.90
6210;DHT22;3138;52.550;13.148;2023-08-20T09:54:49;27.10;99.90
6210;DHT22;3138;52.550;13.148;2023-08-20T09:57:23;27.50;99.90
6210;DHT22;3138;52.550;13.148;2023-08-20T09:59:53;27.40;99.90
6210;DHT22;3138;52.550;13.148;2023-08-20T10:02:21;27.40;99.90
6210;DHT22;3138;52.550;13.148;2023-08-20T10:04:49;27.20;99.90
6210;DHT22;3138;52.550;13.148;2023-08-20T10:07:17;27.40;99.90
6210;DHT22;3138;52.550;13.148;2023-08-20T10:09:44;27.60;99.90
6210;DHT22;3138;52.550;13.148;2023-08-20T10:12:12;27.70;99.90
6210;DHT22;3138;52.550;13.148;2023-08-20T10:14:40;27.80;99.90
6210;DHT22;3138;52.550;13.148;2023-08-20T10:17:08;27.80;99.90
6210;DHT22;3138;52.550;13.148;2023-08-20T10:19:37;27.80;99.90
6210;DHT22;3138;52.550;13.148;2023-08-20T10:22:04;27.70;99.90
6210;DHT22;3138;52.550;13.148;2023-08-20T10:24:40;28.10;99.90
6210;DHT22;3138;52.550;13.148;2023-08-20T10:27:09;28.40;99.90
6210;DHT22;3138;52.550;13.148;2023-08-20T10:29:37;28.40;99.90
6210;DHT22;3138;52.550;13.148;2023-08-20T10:32:06;28.20;99.90
6210;DHT22;3138;52.550;13.148;2023-08-20T10:34:33;27.80;99.90
6210;DHT22;3138;52.550;13.148;2023-08-20T10:37:08;27.70;99.90
6210;DHT22;3138;52.550;13.148;2023-08-20T10:39:35;27.70;99.90
6210;DHT22;3138;52.550;13.148;2023-08-20T10:42:09;27.60;99.90
6210;DHT22;3138;52.550;13.148;2023-08-20T10:44:57;27.70;99.90
6210;DHT22;3138;52.550;13.148;2023-08-20T10:47:24;28.00;99.90
6210;DHT22;3138;52.550;13.148;2023-08-20T10:49:52;28.00;99.90
6210;DHT22;3138;52.550;13.148;2023-08-20T10:52:20;28.20;99.90
6210;DHT22;3138;52.550;13.148;2023-08-20T10:54:50;28.20;99.90
6210;DHT22;3138;52.550;13.148;2023-08-20T10:57:17;28.30;99.90
6210;DHT22;3138;52.550;13.148;2023-08-20T10:59:56;27.90;99.90
6210;DHT22;3138;52.550;13.148;2023-08-20T11:02:23;27.80;99.90
6210;DHT22;3138;52.550;13.148;2023-08-20T11:04:52;28.00;99.90
6210;DHT22;3138;52.550;13.148;2023-08-20T11:07:23;28.00;99.90
6210;DHT22;3138;52.550;13.148;2023-08-20T11:09:50;28.40;99.90
6210;DHT22;3138;52.550;13.148;2023-08-20T11:12:20;28.20;99.90
6210;DHT22;3138;52.550;13.148;2023-08-20T11:14:47;28.50;99.90
6210;DHT22;3138;52.550;13.148;2023-08-20T11:17:14;28.30;99.90
6210;DHT22;3138;52.550;13.148;2023-08-20T11:19:41;28.30;99.90
6210;DHT22;3138;52.550;13.148;2023-08-20T11:22:08;28.20;99.90
6210;DHT22;3138;52.550;13.148;2023-08-20T11:24:37;28.30;99.90
6210;DHT22;3138;52.550;13.148;2023-08-20T11:27:04;28.20;99.90
6210;DHT22;3138;52.550;13.148;2023-08-20T11:29:31;28.50;99.90
6210;DHT22;3138;52.550;13.148;2023-08-20T11:31:58;28.60;99.90
6210;DHT22;3138;52.550;13.148;2023-08-20T11:34:28;28.60;99.90
6210;DHT22;3138;52.550;13.148;2023-08-20T11:36:55;28.50;99.90
6210;DHT22;3138;52.550;13.148;2023-08-20T11:39:23;28.60;99.90
6210;DHT22;3138;52.550;13.148;2023-08-20T11:41:52;28.80;99.90
6210;DHT22;3138;52.550;13.148;2023-08-20T11:44:20;28.80;99.90
6210;DHT22;3138;52.550;13.148;2023-08-20T11:46:47;28.70;99.90
6210;DHT22;3138;52.550;13.148;2023-08-20T11:49:15;28.40;99.90
6210;DHT22;3138;52.550;13.148;2023-08-20T11:51:42;28.70;99.90
6210;DHT22;3138;52.550;13.148;2023-08-20T11:54:12;28.90;99.90
6210;DHT22;3138;52.550;13.148;2023-08-20T11:56:44;28.90;99.90
6210;DHT22;3138;52.550;13.148;2023-08-20T11:59:14;28.90;99.90
6210;DHT22;3138;52.550;13.148;2023-08-20T12:01:41;29.10;99.90
6210;DHT22;3138;52.550;13.148;2023-08-20T12:04:09;28.90;99.90
6210;DHT22;3138;52.550;13.148;2023-08-20T12:06:37;29.10;99.90
6210;DHT22;3138;52.550;13.148;2023-08-20T12:09:19;29.20;99.90
6210;DHT22;3138;52.550;13.148;2023-08-20T12:11:48;29.00;99.90
6210;DHT22;3138;52.550;13.148;2023-08-20T12:14:17;28.80;99.90
6210;DHT22;3138;52.550;13.148;2023-08-20T12:16:44;28.80;99.90
6210;DHT22;3138;52.550;13.148;2023-08-20T12:19:12;28.90;99.90
6210;DHT22;3138;52.550;13.148;2023-08-20T12:21:39;29.10;99.90
6210;DHT22;3138;52.550;13.148;2023-08-20T12:24:08;28.70;99.90
6210;DHT22;3138;52.550;13.148;2023-08-20T12:26:35;28.80;99.90
6210;DHT22;3138;52.550;13.148;2023-08-20T12:29:02;29.00;99.90
6210;DHT22;3138;52.550;13.148;2023-08-20T12:31:31;28.80;99.90
6210;DHT22;3138;52.550;13.148;2023-08-20T12:34:00;28.90;99.90
6210;DHT22;3138;52.550;13.148;2023-08-20T12:36:27;28.90;99.90
6210;DHT22;3138;52.550;13.148;2023-08-20T12:38:57;29.00;99.90
6210;DHT22;3138;52.550;13.148;2023-08-20T12:41:25;29.00;99.90
6210;DHT22;3138;52.550;13.148;2023-08-20T12:43:52;29.00;99.90
6210;DHT22;3138;52.550;13.148;2023-08-20T12:46:19;28.90;99.90
6210;DHT22;3138;52.550;13.148;2023-08-20T12:48:47;29.00;99.90
6210;DHT22;3138;52.550;13.148;2023-08-20T12:51:16;29.20;99.90
6210;DHT22;3138;52.550;13.148;2023-08-20T12:53:43;29.20;99.90
6210;DHT22;3138;52.550;13.148;2023-08-20T12:56:10;29.50;99.90
6210;DHT22;3138;52.550;13.148;2023-08-20T12:58:40;29.10;99.90
6210;DHT22;3138;52.550;13.148;2023-08-20T13:01:06;29.40;99.90
6210;DHT22;3138;52.550;13.148;2023-08-20T13:03:34;29.30;99.90
6210;DHT22;3138;52.550;13.148;2023-08-20T13:06:04;29.10;99.90
6210;DHT22;3138;52.550;13.148;2023-08-20T13:08:31;29.00;99.90
6210;DHT22;3138;52.550;13.148;2023-08-20T13:10:59;29.10;99.90
6210;DHT22;3138;52.550;13.148;2023-08-20T13:13:27;29.10;99.90
6210;DHT22;3138;52.550;13.148;2023-08-20T13:15:54;29.20;99.90
6210;DHT22;3138;52.550;13.148;2023-08-20T13:18:21;29.00;99.90
6210;DHT22;3138;52.550;13.148;2023-08-20T13:20:51;29.10;99.90
6210;DHT22;3138;52.550;13.148;2023-08-20T13:23:20;29.10;99.90
6210;DHT22;3138;52.550;13.148;2023-08-20T13:25:47;29.10;99.90
6210;DHT22;3138;52.550;13.148;2023-08-20T13:28:13;29.10;99.90
6210;DHT22;3138;52.550;13.148;2023-08-20T13:30:40;29.30;99.90
6210;DHT22;3138;52.550;13.148;2023-08-20T13:33:07;29.40;99.90
6210;DHT22;3138;52.550;13.148;2023-08-20T13:35:34;29.40;99.90
6210;DHT22;3138;52.550;13.148;2023-08-20T13:38:01;29.30;99.90
6210;DHT22;3138;52.550;13.148;2023-08-20T13:40:31;29.20;99.90
6210;DHT22;3138;52.550;13.148;2023-08-20T13:42:58;29.20;99.90
6210;DHT22;3138;52.550;13.148;2023-08-20T13:45:25;29.40;99.90
6210;DHT22;3138;52.550;13.148;2023-08-20T13:47:51;29.10;99.90
6210;DHT22;3138;52.550;13.148;2023-08-20T13:50:18;29.40;99.90
6210;DHT22;3138;52.550;13.148;2023-08-20T13:52:45;29.10;99.90
6210;DHT22;3138;52.550;13.148;2023-08-20T13:55:14;29.10;99.90
6210;DHT22;3138;52.550;13.148;2023-08-20T13:57:43;28.80;99.90
6210;DHT22;3138;52.550;13.148;2023-08-20T14:00:11;28.90;99.90
6210;DHT22;3138;52.550;13.148;2023-08-20T14:02:38;28.80;99.90
6210;DHT22;3138;52.550;13.148;2023-08-20T14:05:05;29.00;99.90
6210;DHT22;3138;52.550;13.148;2023-08-20T14:07:33;28.90;99.90
6210;DHT22;3138;52.550;13.148;2023-08-20T14:09:59;28.70;99.90
6210;DHT22;3138;52.550;13.148;2023-08-20T14:12:26;28.40;99.90
6210;DHT22;3138;52.550;13.148;2023-08-20T14:14:55;28.70;99.90
6210;DHT22;3138;52.550;13.148;2023-08-20T14:17:22;28.90;99.90
6210;DHT22;3138;52.550;13.148;2023-08-20T14:19:49;29.10;99.90
6210;DHT22;3138;52.550;13.148;2023-08-20T14:22:16;28.80;99.90
6210;DHT22;3138;52.550;13.148;2023-08-20T14:24:43;28.60;99.90
6210;DHT22;3138;52.550;13.148;2023-08-20T14:27:10;28.40;99.90
6210;DHT22;3138;52.550;13.148;2023-08-20T14:29:37;28.30;99.90
6210;DHT22;3138;52.550;13.148;2023-08-20T14:32:08;28.60;99.90
6210;DHT22;3138;52.550;13.148;2023-08-20T14:34:35;29.00;99.90
6210;DHT22;3138;52.550;13.148;2023-08-20T14:37:02;29.00;99.90
6210;DHT22;3138;52.550;13.148;2023-08-20T14:39:29;29.00;99.90
6210;DHT22;3138;52.550;13.148;2023-08-20T14:41:56;28.80;99.90
6210;DHT22;3138;52.550;13.148;2023-08-20T14:44:23;28.70;99.90
6210;DHT22;3138;52.550;13.148;2023-08-20T14:46:50;28.90;99.90
6210;DHT22;3138;52.550;13.148;2023-08-20T14:49:18;29.00;99.90
6210;DHT22;3138;52.550;13.148;2023-08-20T14:51:45;28.90;99.90
6210;DHT22;3138;52.550;13.148;2023-08-20T14:54:12;29.00;99.90
6210;DHT22;3138;52.550;13.148;2023-08-20T14:56:39;29.10;99.90
6210;DHT22;3138;52.550;13.148;2023-08-20T14:59:06;29.20;99.90
6210;DHT22;3138;52.550;13.148;2023-08-20T15:01:35;29.20;99.90
6210;DHT22;3138;52.550;13.148;2023-08-20T15:04:02;28.90;99.90
6210;DHT22;3138;52.550;13.148;2023-08-20T15:06:30;28.90;99.90
6210;DHT22;3138;52.550;13.148;2023-08-20T15:08:59;28.70;99.90
6210;DHT22;3138;52.550;13.148;2023-08-20T15:11:26;28.70;99.90
6210;DHT22;3138;52.550;13.148;2023-08-20T15:13:54;28.40;99.90
6210;DHT22;3138;52.550;13.148;2023-08-20T15:16:21;28.50;99.90
6210;DHT22;3138;52.550;13.148;2023-08-20T15:18:47;28.30;99.90
6210;DHT22;3138;52.550;13.148;2023-08-20T15:21:14;28.40;99.90
6210;DHT22;3138;52.550;13.148;2023-08-20T15:23:42;28.50;99.90
6210;DHT22;3138;52.550;13.148;2023-08-20T15:26:09;28.30;99.90
6210;DHT22;3138;52.550;13.148;2023-08-20T15:28:36;28.20;99.90
6210;DHT22;3138;52.550;13.148;2023-08-20T15:31:03;28.20;99.90
6210;DHT22;3138;52.550;13.148;2023-08-20T15:33:30;28.10;99.90
6210;DHT22;3138;52.550;13.148;2023-08-20T15:35:58;28.00;99.90
6210;DHT22;3138;52.550;13.148;2023-08-20T15:38:25;28.00;99.90
6210;DHT22;3138;52.550;13.148;2023-08-20T15:40:54;28.00;99.90
6210;DHT22;3138;52.550;13.148;2023-08-20T15:43:21;28.20;99.90
6210;DHT22;3138;52.550;13.148;2023-08-20T15:45:48;28.20;99.90
6210;DHT22;3138;52.550;13.148;2023-08-20T15:48:14;28.20;99.90
6210;DHT22;3138;52.550;13.148;2023-08-20T15:50:41;28.30;99.90